sensor_id;sensor_type;location;lat;lon;timestamp;pressure;altitude;pressure_sealevel;temperature;humidity
79538;BME280;68989;52.032;5.152;2024-02-21T00:01:24;102273.59;;;14.85;64.80
79538;BME280;68989;52.032;5.152;2024-02-21T00:03:51;102270.95;;;14.84;64.70
79538;BME280;68989;52.032;5.152;2024-02-21T00:06:18;102272.01;;;14.83;64.83
79538;BME280;68989;52.032;5.152;2024-02-21T00:08:46;102266.94;;;14.83;64.79
79538;BME280;68989;52.032;5.152;2024-02-21T00:11:13;102259.42;;;14.81;64.71
79538;BME280;68989;52.032;5.152;2024-02-21T00:13:40;102246.45;;;14.80;64.72
79538;BME280;68989;52.032;5.152;2024-02-21T00:16:07;102245.72;;;14.79;64.88
79538;BME280;68989;52.032;5.152;2024-02-21T00:18:34;102251.61;;;14.78;64.56
79538;BME280;68989;52.032;5.152;2024-02-21T00:21:01;102246.06;;;14.77;64.78
79538;BME280;68989;52.032;5.152;2024-02-21T00:23:28;102246.41;;;14.75;64.75
79538;BME280;68989;52.032;5.152;2024-02-21T00:25:55;102248.84;;;14.75;64.80
79538;BME280;68989;52.032;5.152;2024-02-21T00:28:22;102243.49;;;14.74;64.76
79538;BME280;68989;52.032;5.152;2024-02-21T00:30:50;102224.91;;;14.74;64.98
79538;BME280;68989;52.032;5.152;2024-02-21T00:33:17;102221.24;;;14.74;64.88
79538;BME280;68989;52.032;5.152;2024-02-21T00:35:44;102236.21;;;14.74;64.87
79538;BME280;68989;52.032;5.152;2024-02-21T00:38:11;102238.57;;;14.74;64.72
79538;BME280;68989;52.032;5.152;2024-02-21T00:40:37;102239.88;;;14.73;64.81
79538;BME280;68989;52.032;5.152;2024-02-21T00:43:04;102229.07;;;14.73;64.98
79538;BME280;68989;52.032;5.152;2024-02-21T00:45:31;102224.16;;;14.74;65.06
79538;BME280;68989;52.032;5.152;2024-02-21T00:47:58;102205.92;;;14.74;65.05
79538;BME280;68989;52.032;5.152;2024-02-21T00:50:25;102205.38;;;14.71;64.65
79538;BME280;68989;52.032;5.152;2024-02-21T00:52:52;102224.34;;;14.72;64.92
79538;BME280;68989;52.032;5.152;2024-02-21T00:55:19;102245.23;;;14.71;64.93
79538;BME280;68989;52.032;5.152;2024-02-21T00:57:46;102242.45;;;14.71;65.07
79538;BME280;68989;52.032;5.152;2024-02-21T01:00:13;102247.26;;;14.71;64.91
79538;BME280;68989;52.032;5.152;2024-02-21T01:02:40;102251.20;;;14.71;65.01
79538;BME280;68989;52.032;5.152;2024-02-21T01:05:08;102245.87;;;14.71;65.03
79538;BME280;68989;52.032;5.152;2024-02-21T01:07:34;102243.26;;;14.71;65.06
79538;BME280;68989;52.032;5.152;2024-02-21T01:10:01;102249.57;;;14.70;65.04
79538;BME280;68989;52.032;5.152;2024-02-21T01:12:28;102245.86;;;14.70;65.14
79538;BME280;68989;52.032;5.152;2024-02-21T01:14:55;102245.63;;;14.70;65.01
79538;BME280;68989;52.032;5.152;2024-02-21T01:17:22;102234.86;;;14.70;65.15
79538;BME280;68989;52.032;5.152;2024-02-21T01:19:49;102225.35;;;14.71;65.04
79538;BME280;68989;52.032;5.152;2024-02-21T01:22:16;102226.54;;;14.72;65.20
79538;BME280;68989;52.032;5.152;2024-02-21T01:24:43;102217.63;;;14.72;64.95
79538;BME280;68989;52.032;5.152;2024-02-21T01:27:10;102218.41;;;14.72;64.97
79538;BME280;68989;52.032;5.152;2024-02-21T01:29:37;102219.71;;;14.72;64.99
79538;BME280;68989;52.032;5.152;2024-02-21T01:32:05;102218.08;;;14.73;65.03
79538;BME280;68989;52.032;5.152;2024-02-21T01:34:32;102211.37;;;14.73;64.99
79538;BME280;68989;52.032;5.152;2024-02-21T01:36:59;102206.22;;;14.73;64.91
79538;BME280;68989;52.032;5.152;2024-02-21T01:39:26;102204.88;;;14.73;65.08
79538;BME280;68989;52.032;5.152;2024-02-21T01:41:53;102203.21;;;14.74;65.14
79538;BME280;68989;52.032;5.152;2024-02-21T01:44:20;102197.97;;;14.75;64.95
79538;BME280;68989;52.032;5.152;2024-02-21T01:46:47;102193.40;;;14.75;65.17
79538;BME280;68989;52.032;5.152;2024-02-21T01:49:14;102192.72;;;14.75;64.97
79538;BME280;68989;52.032;5.152;2024-02-21T01:51:42;102192.00;;;14.75;64.99
79538;BME280;68989;52.032;5.152;2024-02-21T01:54:10;102186.24;;;14.75;65.05
79538;BME280;68989;52.032;5.152;2024-02-21T01:56:37;102192.51;;;14.75;65.15
79538;BME280;68989;52.032;5.152;2024-02-21T01:59:04;102191.62;;;14.75;65.02
79538;BME280;68989;52.032;5.152;2024-02-21T02:02:19;102192.08;;;14.76;65.28
79538;BME280;68989;52.032;5.152;2024-02-21T02:04:49;102187.93;;;14.75;64.88
79538;BME280;68989;52.032;5.152;2024-02-21T02:07:16;102182.72;;;14.74;64.95
79538;BME280;68989;52.032;5.152;2024-02-21T02:09:44;102181.32;;;14.74;64.86
79538;BME280;68989;52.032;5.152;2024-02-21T02:12:10;102176.95;;;14.74;65.09
79538;BME280;68989;52.032;5.152;2024-02-21T02:14:37;102168.42;;;14.74;65.03
79538;BME280;68989;52.032;5.152;2024-02-21T02:17:05;102163.63;;;14.75;65.10
79538;BME280;68989;52.032;5.152;2024-02-21T02:19:32;102157.74;;;14.76;65.06
79538;BME280;68989;52.032;5.152;2024-02-21T02:22:07;102157.24;;;14.75;64.78
79538;BME280;68989;52.032;5.152;2024-02-21T02:24:36;102155.31;;;14.75;64.94
79538;BME280;68989;52.032;5.152;2024-02-21T02:27:03;102151.47;;;14.75;65.14
79538;BME280;68989;52.032;5.152;2024-02-21T02:29:32;102152.44;;;14.76;65.09
79538;BME280;68989;52.032;5.152;2024-02-21T02:31:59;102149.68;;;14.77;65.01
79538;BME280;68989;52.032;5.152;2024-02-21T02:34:26;102147.91;;;14.77;65.01
79538;BME280;68989;52.032;5.152;2024-02-21T02:36:53;102152.96;;;14.77;64.96
79538;BME280;68989;52.032;5.152;2024-02-21T02:39:21;102151.40;;;14.77;64.97
79538;BME280;68989;52.032;5.152;2024-02-21T02:41:48;102147.39;;;14.76;64.66
79538;BME280;68989;52.032;5.152;2024-02-21T02:44:14;102153.04;;;14.77;64.77
79538;BME280;68989;52.032;5.152;2024-02-21T02:46:42;102146.47;;;14.77;64.79
79538;BME280;68989;52.032;5.152;2024-02-21T02:49:09;102140.54;;;14.77;64.91
79538;BME280;68989;52.032;5.152;2024-02-21T02:51:36;102137.53;;;14.77;64.84
79538;BME280;68989;52.032;5.152;2024-02-21T02:54:03;102137.46;;;14.76;64.89
79538;BME280;68989;52.032;5.152;2024-02-21T02:56:30;102131.10;;;14.76;64.96
79538;BME280;68989;52.032;5.152;2024-02-21T02:58:57;102121.77;;;14.76;64.72
79538;BME280;68989;52.032;5.152;2024-02-21T03:01:24;102123.22;;;14.76;65.01
79538;BME280;68989;52.032;5.152;2024-02-21T03:03:51;102127.34;;;14.75;64.92
79538;BME280;68989;52.032;5.152;2024-02-21T03:06:18;102121.44;;;14.75;64.86
79538;BME280;68989;52.032;5.152;2024-02-21T03:08:45;102110.17;;;14.75;64.83
79538;BME280;68989;52.032;5.152;2024-02-21T03:11:12;102104.35;;;14.75;64.68
79538;BME280;68989;52.032;5.152;2024-02-21T03:13:39;102108.01;;;14.75;64.89
79538;BME280;68989;52.032;5.152;2024-02-21T03:16:06;102096.91;;;14.74;64.75
79538;BME280;68989;52.032;5.152;2024-02-21T03:18:33;102094.31;;;14.70;64.92
79538;BME280;68989;52.032;5.152;2024-02-21T03:21:01;102094.24;;;14.71;64.99
79538;BME280;68989;52.032;5.152;2024-02-21T03:23:28;102097.81;;;14.72;65.10
79538;BME280;68989;52.032;5.152;2024-02-21T03:25:55;102098.67;;;14.73;64.93
79538;BME280;68989;52.032;5.152;2024-02-21T03:28:22;102095.47;;;14.73;64.98
79538;BME280;68989;52.032;5.152;2024-02-21T03:30:49;102088.47;;;14.73;64.96
79538;BME280;68989;52.032;5.152;2024-02-21T03:33:16;102084.96;;;14.73;64.85
79538;BME280;68989;52.032;5.152;2024-02-21T03:35:43;102075.94;;;14.73;64.91
79538;BME280;68989;52.032;5.152;2024-02-21T03:38:10;102066.87;;;14.72;64.77
79538;BME280;68989;52.032;5.152;2024-02-21T03:40:37;102065.49;;;14.71;64.89
79538;BME280;68989;52.032;5.152;2024-02-21T03:43:04;102062.87;;;14.69;64.74
79538;BME280;68989;52.032;5.152;2024-02-21T03:45:30;102069.70;;;14.69;64.94
79538;BME280;68989;52.032;5.152;2024-02-21T03:47:58;102070.54;;;14.68;64.73
79538;BME280;68989;52.032;5.152;2024-02-21T03:50:25;102067.05;;;14.67;64.97
79538;BME280;68989;52.032;5.152;2024-02-21T03:52:52;102069.16;;;14.68;64.90
79538;BME280;68989;52.032;5.152;2024-02-21T03:55:19;102071.95;;;14.68;64.81
79538;BME280;68989;52.032;5.152;2024-02-21T03:57:46;102069.03;;;14.68;65.00
79538;BME280;68989;52.032;5.152;2024-02-21T04:00:14;102066.44;;;14.68;64.84
79538;BME280;68989;52.032;5.152;2024-02-21T04:02:42;102066.16;;;14.67;64.75
79538;BME280;68989;52.032;5.152;2024-02-21T04:05:08;102063.23;;;14.67;64.78
79538;BME280;68989;52.032;5.152;2024-02-21T04:07:36;102067.51;;;14.67;64.82
79538;BME280;68989;52.032;5.152;2024-02-21T04:10:03;102067.07;;;14.66;64.95
79538;BME280;68989;52.032;5.152;2024-02-21T04:12:31;102060.39;;;14.66;64.90
79538;BME280;68989;52.032;5.152;2024-02-21T04:14:58;102050.52;;;14.66;64.87
79538;BME280;68989;52.032;5.152;2024-02-21T04:17:25;102041.50;;;14.67;64.93
79538;BME280;68989;52.032;5.152;2024-02-21T04:20:02;102034.39;;;14.67;64.90
79538;BME280;68989;52.032;5.152;2024-02-21T04:22:29;102041.53;;;14.68;64.80
79538;BME280;68989;52.032;5.152;2024-02-21T04:24:56;102050.76;;;14.68;64.77
79538;BME280;68989;52.032;5.152;2024-02-21T04:27:23;102047.86;;;14.67;64.62
79538;BME280;68989;52.032;5.152;2024-02-21T04:29:49;102042.45;;;14.66;64.64
79538;BME280;68989;52.032;5.152;2024-02-21T04:32:16;102048.07;;;14.65;64.47
79538;BME280;68989;52.032;5.152;2024-02-21T04:34:43;102043.42;;;14.64;64.79
79538;BME280;68989;52.032;5.152;2024-02-21T04:37:10;102039.88;;;14.63;64.68
79538;BME280;68989;52.032;5.152;2024-02-21T04:39:37;102037.13;;;14.62;64.70
79538;BME280;68989;52.032;5.152;2024-02-21T04:42:04;102031.63;;;14.61;64.61
79538;BME280;68989;52.032;5.152;2024-02-21T04:44:31;102027.42;;;14.62;64.72
79538;BME280;68989;52.032;5.152;2024-02-21T04:46:59;102024.46;;;14.63;64.85
79538;BME280;68989;52.032;5.152;2024-02-21T04:49:26;102025.71;;;14.61;64.73
79538;BME280;68989;52.032;5.152;2024-02-21T04:51:53;102018.91;;;14.60;64.74
79538;BME280;68989;52.032;5.152;2024-02-21T04:54:20;102013.94;;;14.59;64.66
79538;BME280;68989;52.032;5.152;2024-02-21T04:56:47;102006.29;;;14.59;65.04
79538;BME280;68989;52.032;5.152;2024-02-21T04:59:15;102005.07;;;14.58;64.95
79538;BME280;68989;52.032;5.152;2024-02-21T05:01:42;102004.61;;;14.57;64.96
79538;BME280;68989;52.032;5.152;2024-02-21T05:04:09;102001.75;;;14.58;64.97
79538;BME280;68989;52.032;5.152;2024-02-21T05:06:37;102004.49;;;14.57;64.88
79538;BME280;68989;52.032;5.152;2024-02-21T05:09:05;102002.95;;;14.57;64.90
79538;BME280;68989;52.032;5.152;2024-02-21T05:11:32;101997.97;;;14.56;64.83
79538;BME280;68989;52.032;5.152;2024-02-21T05:13:59;101995.86;;;14.56;64.92
79538;BME280;68989;52.032;5.152;2024-02-21T05:16:26;101991.34;;;14.56;64.97
79538;BME280;68989;52.032;5.152;2024-02-21T05:18:54;101980.95;;;14.57;65.16
79538;BME280;68989;52.032;5.152;2024-02-21T05:21:22;101975.40;;;14.59;65.09
79538;BME280;68989;52.032;5.152;2024-02-21T05:23:49;101974.85;;;14.59;65.00
79538;BME280;68989;52.032;5.152;2024-02-21T05:26:20;101969.97;;;14.60;65.04
79538;BME280;68989;52.032;5.152;2024-02-21T05:28:47;101965.44;;;14.61;65.05
79538;BME280;68989;52.032;5.152;2024-02-21T05:31:15;101962.19;;;14.61;64.95
79538;BME280;68989;52.032;5.152;2024-02-21T05:33:41;101960.63;;;14.60;64.64
79538;BME280;68989;52.032;5.152;2024-02-21T05:36:08;101956.25;;;14.61;64.89
79538;BME280;68989;52.032;5.152;2024-02-21T05:38:36;101950.22;;;14.61;65.00
79538;BME280;68989;52.032;5.152;2024-02-21T05:41:03;101939.62;;;14.61;64.84
79538;BME280;68989;52.032;5.152;2024-02-21T05:43:30;101937.75;;;14.62;64.97
79538;BME280;68989;52.032;5.152;2024-02-21T05:45:58;101934.31;;;14.60;64.65
79538;BME280;68989;52.032;5.152;2024-02-21T05:48:25;101931.77;;;14.59;64.77
79538;BME280;68989;52.032;5.152;2024-02-21T05:50:52;101927.60;;;14.59;64.88
79538;BME280;68989;52.032;5.152;2024-02-21T05:53:18;101922.47;;;14.58;64.77
79538;BME280;68989;52.032;5.152;2024-02-21T05:55:46;101918.76;;;14.58;64.90
79538;BME280;68989;52.032;5.152;2024-02-21T05:58:13;101921.05;;;14.57;64.83
79538;BME280;68989;52.032;5.152;2024-02-21T06:00:40;101916.97;;;14.57;64.88
79538;BME280;68989;52.032;5.152;2024-02-21T06:03:07;101913.88;;;14.56;64.83
79538;BME280;68989;52.032;5.152;2024-02-21T06:05:37;101915.55;;;14.55;64.78
79538;BME280;68989;52.032;5.152;2024-02-21T06:08:04;101912.43;;;14.53;64.73
79538;BME280;68989;52.032;5.152;2024-02-21T06:10:31;101907.25;;;14.52;64.87
79538;BME280;68989;52.032;5.152;2024-02-21T06:12:58;101900.81;;;14.53;64.84
79538;BME280;68989;52.032;5.152;2024-02-21T06:15:26;101906.75;;;14.53;65.01
79538;BME280;68989;52.032;5.152;2024-02-21T06:17:53;101906.44;;;14.54;65.04
79538;BME280;68989;52.032;5.152;2024-02-21T06:20:20;101905.41;;;14.53;64.91
79538;BME280;68989;52.032;5.152;2024-02-21T06:22:47;101908.29;;;14.54;65.12
79538;BME280;68989;52.032;5.152;2024-02-21T06:25:14;101911.85;;;14.54;64.95
79538;BME280;68989;52.032;5.152;2024-02-21T06:27:41;101912.82;;;14.55;65.02
79538;BME280;68989;52.032;5.152;2024-02-21T06:30:10;101915.03;;;14.55;64.94
79538;BME280;68989;52.032;5.152;2024-02-21T06:32:37;101918.79;;;14.54;64.94
79538;BME280;68989;52.032;5.152;2024-02-21T06:35:05;101919.11;;;14.55;65.02
79538;BME280;68989;52.032;5.152;2024-02-21T06:37:32;101917.05;;;14.55;64.76
79538;BME280;68989;52.032;5.152;2024-02-21T06:40:00;101919.14;;;14.53;65.03
79538;BME280;68989;52.032;5.152;2024-02-21T06:42:27;101917.21;;;14.53;65.17
79538;BME280;68989;52.032;5.152;2024-02-21T06:44:53;101918.38;;;14.52;64.79
79538;BME280;68989;52.032;5.152;2024-02-21T06:47:21;101913.52;;;14.52;65.03
79538;BME280;68989;52.032;5.152;2024-02-21T06:49:49;101909.79;;;14.50;64.74
79538;BME280;68989;52.032;5.152;2024-02-21T06:52:17;101904.53;;;14.51;64.99
79538;BME280;68989;52.032;5.152;2024-02-21T06:54:44;101903.04;;;14.50;64.99
79538;BME280;68989;52.032;5.152;2024-02-21T06:57:12;101897.12;;;14.50;64.91
79538;BME280;68989;52.032;5.152;2024-02-21T06:59:39;101895.64;;;14.51;64.95
79538;BME280;68989;52.032;5.152;2024-02-21T07:02:06;101889.81;;;14.52;64.90
79538;BME280;68989;52.032;5.152;2024-02-21T07:04:34;101888.38;;;14.53;64.98
79538;BME280;68989;52.032;5.152;2024-02-21T07:07:01;101885.38;;;14.53;64.85
79538;BME280;68989;52.032;5.152;2024-02-21T07:09:28;101884.02;;;14.54;64.65
79538;BME280;68989;52.032;5.152;2024-02-21T07:11:55;101884.09;;;14.52;65.04
79538;BME280;68989;52.032;5.152;2024-02-21T07:14:22;101882.85;;;14.51;64.68
79538;BME280;68989;52.032;5.152;2024-02-21T07:16:50;101880.57;;;14.51;64.79
79538;BME280;68989;52.032;5.152;2024-02-21T07:19:17;101877.21;;;14.51;64.50
79538;BME280;68989;52.032;5.152;2024-02-21T07:21:44;101875.26;;;14.50;64.91
79538;BME280;68989;52.032;5.152;2024-02-21T07:24:12;101871.48;;;14.49;64.61
79538;BME280;68989;52.032;5.152;2024-02-21T07:26:41;101869.01;;;14.49;64.83
79538;BME280;68989;52.032;5.152;2024-02-21T07:29:08;101867.83;;;14.49;64.65
79538;BME280;68989;52.032;5.152;2024-02-21T07:31:40;101861.13;;;14.49;64.77
79538;BME280;68989;52.032;5.152;2024-02-21T07:34:07;101857.03;;;14.49;64.57
79538;BME280;68989;52.032;5.152;2024-02-21T07:36:34;101851.65;;;14.47;64.57
79538;BME280;68989;52.032;5.152;2024-02-21T07:39:02;101840.04;;;14.47;64.73
79538;BME280;68989;52.032;5.152;2024-02-21T07:41:30;101837.97;;;14.48;64.86
79538;BME280;68989;52.032;5.152;2024-02-21T07:43:57;101832.03;;;14.49;64.77
79538;BME280;68989;52.032;5.152;2024-02-21T07:46:24;101826.13;;;14.49;64.58
79538;BME280;68989;52.032;5.152;2024-02-21T07:48:51;101821.61;;;14.49;64.69
79538;BME280;68989;52.032;5.152;2024-02-21T07:51:19;101817.05;;;14.50;64.74
79538;BME280;68989;52.032;5.152;2024-02-21T07:53:46;101811.82;;;14.46;64.74
79538;BME280;68989;52.032;5.152;2024-02-21T07:56:13;101815.90;;;14.47;64.77
79538;BME280;68989;52.032;5.152;2024-02-21T07:58:40;101815.09;;;14.46;64.87
79538;BME280;68989;52.032;5.152;2024-02-21T08:01:07;101817.64;;;14.46;64.97
79538;BME280;68989;52.032;5.152;2024-02-21T08:03:35;101812.04;;;14.48;64.87
79538;BME280;68989;52.032;5.152;2024-02-21T08:06:03;101813.11;;;14.50;64.91
79538;BME280;68989;52.032;5.152;2024-02-21T08:08:30;101810.69;;;14.53;64.86
79538;BME280;68989;52.032;5.152;2024-02-21T08:10:58;101795.77;;;14.51;64.63
79538;BME280;68989;52.032;5.152;2024-02-21T08:13:25;101802.64;;;14.53;64.89
79538;BME280;68989;52.032;5.152;2024-02-21T08:15:52;101805.59;;;14.51;64.59
79538;BME280;68989;52.032;5.152;2024-02-21T08:18:20;101797.48;;;14.54;64.78
79538;BME280;68989;52.032;5.152;2024-02-21T08:20:47;101787.57;;;14.54;64.72
79538;BME280;68989;52.032;5.152;2024-02-21T08:23:15;101790.41;;;14.55;64.85
79538;BME280;68989;52.032;5.152;2024-02-21T08:25:43;101786.08;;;14.54;64.66
79538;BME280;68989;52.032;5.152;2024-02-21T08:28:10;101780.92;;;14.58;64.80
79538;BME280;68989;52.032;5.152;2024-02-21T08:30:37;101784.65;;;14.61;64.64
79538;BME280;68989;52.032;5.152;2024-02-21T08:33:04;101774.72;;;14.63;64.42
79538;BME280;68989;52.032;5.152;2024-02-21T08:35:32;101779.10;;;14.66;64.50
79538;BME280;68989;52.032;5.152;2024-02-21T08:37:59;101775.24;;;14.68;64.30
79538;BME280;68989;52.032;5.152;2024-02-21T08:40:26;101779.12;;;14.70;64.38
79538;BME280;68989;52.032;5.152;2024-02-21T08:42:53;101771.27;;;14.70;64.34
79538;BME280;68989;52.032;5.152;2024-02-21T08:45:20;101766.47;;;14.73;64.39
79538;BME280;68989;52.032;5.152;2024-02-21T08:47:47;101757.78;;;14.75;64.23
79538;BME280;68989;52.032;5.152;2024-02-21T08:50:15;101758.29;;;14.77;64.27
79538;BME280;68989;52.032;5.152;2024-02-21T08:52:42;101750.71;;;14.80;63.96
79538;BME280;68989;52.032;5.152;2024-02-21T08:55:09;101748.14;;;14.82;63.96
79538;BME280;68989;52.032;5.152;2024-02-21T08:57:36;101745.11;;;14.86;63.93
79538;BME280;68989;52.032;5.152;2024-02-21T09:00:04;101742.84;;;14.87;64.05
79538;BME280;68989;52.032;5.152;2024-02-21T09:02:31;101740.31;;;14.91;63.68
79538;BME280;68989;52.032;5.152;2024-02-21T09:04:58;101736.34;;;14.91;63.65
79538;BME280;68989;52.032;5.152;2024-02-21T09:07:25;101736.25;;;14.91;63.77
79538;BME280;68989;52.032;5.152;2024-02-21T09:09:51;101732.97;;;14.94;63.52
79538;BME280;68989;52.032;5.152;2024-02-21T09:12:19;101732.67;;;14.98;63.51
79538;BME280;68989;52.032;5.152;2024-02-21T09:14:46;101730.56;;;15.00;63.30
79538;BME280;68989;52.032;5.152;2024-02-21T09:17:14;101732.75;;;15.04;63.41
79538;BME280;68989;52.032;5.152;2024-02-21T09:19:41;101725.56;;;15.05;63.00
79538;BME280;68989;52.032;5.152;2024-02-21T09:22:08;101719.56;;;15.07;63.01
79538;BME280;68989;52.032;5.152;2024-02-21T09:24:35;101705.86;;;15.08;63.15
79538;BME280;68989;52.032;5.152;2024-02-21T09:27:03;101707.78;;;15.12;63.08
79538;BME280;68989;52.032;5.152;2024-02-21T09:29:30;101704.47;;;15.15;62.78
79538;BME280;68989;52.032;5.152;2024-02-21T09:31:57;101697.04;;;15.14;62.49
79538;BME280;68989;52.032;5.152;2024-02-21T09:34:24;101694.42;;;15.18;62.74
79538;BME280;68989;52.032;5.152;2024-02-21T09:36:51;101680.72;;;15.22;62.39
79538;BME280;68989;52.032;5.152;2024-02-21T09:39:19;101677.67;;;15.22;62.36
79538;BME280;68989;52.032;5.152;2024-02-21T09:41:50;101665.77;;;15.25;62.30
79538;BME280;68989;52.032;5.152;2024-02-21T09:44:17;101665.32;;;15.29;62.30
79538;BME280;68989;52.032;5.152;2024-02-21T09:46:52;101655.76;;;15.31;62.44
79538;BME280;68989;52.032;5.152;2024-02-21T09:49:30;101647.18;;;15.34;62.34
79538;BME280;68989;52.032;5.152;2024-02-21T09:51:57;101635.94;;;15.34;62.08
79538;BME280;68989;52.032;5.152;2024-02-21T09:54:28;101622.91;;;15.36;61.96
79538;BME280;68989;52.032;5.152;2024-02-21T09:56:55;101609.31;;;15.39;61.85
79538;BME280;68989;52.032;5.152;2024-02-21T09:59:24;101607.54;;;15.44;61.99
79538;BME280;68989;52.032;5.152;2024-02-21T10:01:51;101606.46;;;15.47;61.80
79538;BME280;68989;52.032;5.152;2024-02-21T10:04:19;101596.38;;;15.50;61.41
79538;BME280;68989;52.032;5.152;2024-02-21T10:06:46;101596.73;;;15.50;61.65
79538;BME280;68989;52.032;5.152;2024-02-21T10:09:22;101588.13;;;15.56;61.35
79538;BME280;68989;52.032;5.152;2024-02-21T10:11:50;101577.83;;;15.61;61.19
79538;BME280;68989;52.032;5.152;2024-02-21T10:14:17;101573.85;;;15.63;61.00
79538;BME280;68989;52.032;5.152;2024-02-21T10:16:44;101567.98;;;15.66;61.18
79538;BME280;68989;52.032;5.152;2024-02-21T10:19:19;101567.30;;;15.67;61.00
79538;BME280;68989;52.032;5.152;2024-02-21T10:22:03;101562.93;;;15.72;61.35
79538;BME280;68989;52.032;5.152;2024-02-21T10:24:31;101562.44;;;15.79;61.34
79538;BME280;68989;52.032;5.152;2024-02-21T10:27:02;101567.10;;;15.84;61.52
79538;BME280;68989;52.032;5.152;2024-02-21T10:29:29;101560.60;;;15.88;61.27
79538;BME280;68989;52.032;5.152;2024-02-21T10:32:05;101547.78;;;15.94;60.99
79538;BME280;68989;52.032;5.152;2024-02-21T10:34:33;101538.15;;;15.98;61.18
79538;BME280;68989;52.032;5.152;2024-02-21T10:37:02;101521.66;;;16.03;61.05
79538;BME280;68989;52.032;5.152;2024-02-21T10:39:29;101513.37;;;16.06;61.02
79538;BME280;68989;52.032;5.152;2024-02-21T10:42:00;101497.65;;;16.09;60.79
79538;BME280;68989;52.032;5.152;2024-02-21T10:44:28;101484.92;;;16.14;60.68
79538;BME280;68989;52.032;5.152;2024-02-21T10:46:55;101459.36;;;16.17;60.62
79538;BME280;68989;52.032;5.152;2024-02-21T10:49:23;101449.69;;;16.19;60.24
79538;BME280;68989;52.032;5.152;2024-02-21T10:51:54;101447.45;;;16.20;59.82
79538;BME280;68989;52.032;5.152;2024-02-21T10:54:33;101455.97;;;16.26;60.10
79538;BME280;68989;52.032;5.152;2024-02-21T10:57:05;101459.59;;;16.30;60.33
79538;BME280;68989;52.032;5.152;2024-02-21T10:59:34;101516.30;;;16.35;60.12
79538;BME280;68989;52.032;5.152;2024-02-21T11:02:02;101513.21;;;16.38;60.01
79538;BME280;68989;52.032;5.152;2024-02-21T11:04:30;101516.14;;;16.40;59.30
79538;BME280;68989;52.032;5.152;2024-02-21T11:07:00;101511.16;;;16.41;59.40
79538;BME280;68989;52.032;5.152;2024-02-21T11:09:30;101516.76;;;16.41;59.32
79538;BME280;68989;52.032;5.152;2024-02-21T11:11:57;101507.34;;;16.36;59.45
79538;BME280;68989;52.032;5.152;2024-02-21T11:14:26;101503.39;;;16.31;59.36
79538;BME280;68989;52.032;5.152;2024-02-21T11:16:54;101498.71;;;16.27;59.07
79538;BME280;68989;52.032;5.152;2024-02-21T11:19:22;101492.03;;;16.24;59.19
79538;BME280;68989;52.032;5.152;2024-02-21T11:21:50;101490.59;;;16.22;59.38
79538;BME280;68989;52.032;5.152;2024-02-21T11:24:26;101491.62;;;16.20;59.20
79538;BME280;68989;52.032;5.152;2024-02-21T11:26:53;101486.36;;;16.11;59.30
79538;BME280;68989;52.032;5.152;2024-02-21T11:29:23;101481.70;;;16.10;59.36
79538;BME280;68989;52.032;5.152;2024-02-21T11:31:51;101477.30;;;16.10;59.51
79538;BME280;68989;52.032;5.152;2024-02-21T11:34:19;101464.14;;;16.06;59.64
79538;BME280;68989;52.032;5.152;2024-02-21T11:36:48;101450.52;;;16.06;59.65
79538;BME280;68989;52.032;5.152;2024-02-21T11:39:20;101440.19;;;16.06;59.65
79538;BME280;68989;52.032;5.152;2024-02-21T11:41:47;101413.14;;;16.01;59.38
79538;BME280;68989;52.032;5.152;2024-02-21T11:44:14;101407.99;;;15.99;59.97
79538;BME280;68989;52.032;5.152;2024-02-21T11:46:41;101399.87;;;16.01;60.38
79538;BME280;68989;52.032;5.152;2024-02-21T11:49:10;101389.25;;;16.05;60.31
79538;BME280;68989;52.032;5.152;2024-02-21T11:51:37;101372.64;;;16.09;60.42
79538;BME280;68989;52.032;5.152;2024-02-21T11:54:06;101361.44;;;16.14;60.25
79538;BME280;68989;52.032;5.152;2024-02-21T11:56:34;101347.81;;;16.21;60.57
79538;BME280;68989;52.032;5.152;2024-02-21T11:59:03;101342.33;;;16.30;60.23
79538;BME280;68989;52.032;5.152;2024-02-21T12:01:29;101345.31;;;16.38;60.18
79538;BME280;68989;52.032;5.152;2024-02-21T12:03:56;101341.06;;;16.39;59.50
79538;BME280;68989;52.032;5.152;2024-02-21T12:06:23;101339.03;;;16.44;59.56
79538;BME280;68989;52.032;5.152;2024-02-21T12:08:50;101329.86;;;16.47;59.26
79538;BME280;68989;52.032;5.152;2024-02-21T12:11:19;101324.56;;;16.54;59.28
79538;BME280;68989;52.032;5.152;2024-02-21T12:13:47;101329.57;;;16.58;58.89
79538;BME280;68989;52.032;5.152;2024-02-21T12:16:16;101319.92;;;16.62;59.04
79538;BME280;68989;52.032;5.152;2024-02-21T12:18:42;101312.14;;;16.66;59.31
79538;BME280;68989;52.032;5.152;2024-02-21T12:21:10;101303.33;;;16.69;59.12
79538;BME280;68989;52.032;5.152;2024-02-21T12:23:38;101288.60;;;16.69;58.94
79538;BME280;68989;52.032;5.152;2024-02-21T12:26:05;101283.80;;;16.71;58.35
79538;BME280;68989;52.032;5.152;2024-02-21T12:28:32;101276.95;;;16.73;58.08
79538;BME280;68989;52.032;5.152;2024-02-21T12:31:00;101265.56;;;16.77;58.30
79538;BME280;68989;52.032;5.152;2024-02-21T12:33:27;101257.16;;;16.80;58.25
79538;BME280;68989;52.032;5.152;2024-02-21T12:35:55;101243.63;;;16.85;58.23
79538;BME280;68989;52.032;5.152;2024-02-21T12:38:21;101238.47;;;16.88;58.37
79538;BME280;68989;52.032;5.152;2024-02-21T12:40:48;101225.01;;;16.90;58.15
79538;BME280;68989;52.032;5.152;2024-02-21T12:43:16;101219.56;;;16.93;58.26
79538;BME280;68989;52.032;5.152;2024-02-21T12:45:43;101208.33;;;16.94;57.86
79538;BME280;68989;52.032;5.152;2024-02-21T12:48:09;101195.78;;;16.94;57.75
79538;BME280;68989;52.032;5.152;2024-02-21T12:50:36;101196.55;;;16.93;57.49
79538;BME280;68989;52.032;5.152;2024-02-21T12:53:03;101191.73;;;16.96;57.76